N1157K KDAY-KTZR
Flight info
| Callsign | N1157K |
|---|---|
| Flight time | 0h 21m |
| Altitude | VFR/035 |
| Route | |
| Aircraft | N20P/L-DOV/C |
Departure
| Time | 2026-05-09 01:27 |
|---|---|
| Airport | James M. Cox Dayton International Airport (KDAY) |
Arrival
| Time | 2026-05-09 01:48 |
|---|---|
| Airport | Bolton Field (KTZR) |
| Time | Latitude | Longitude | Altitude | Speed | Heading |
|---|---|---|---|---|---|
| 2026-05-09 01:19 | 39.90454 | -84.20882 | 1006 ft | 0 kts | 181° |
| 2026-05-09 01:22 | 39.90442 | -84.20905 | 1006 ft | 9 kts | 257° |
| 2026-05-09 01:22 | 39.90404 | -84.20961 | 1006 ft | 12 kts | 179° |
| 2026-05-09 01:23 | 39.90305 | -84.20962 | 1006 ft | 16 kts | 182° |
| 2026-05-09 01:23 | 39.90182 | -84.20962 | 1006 ft | 18 kts | 178° |
| 2026-05-09 01:23 | 39.90154 | -84.20875 | 1005 ft | 19 kts | 89° |
| 2026-05-09 01:23 | 39.90155 | -84.20677 | 1005 ft | 23 kts | 86° |
| 2026-05-09 01:24 | 39.90155 | -84.20516 | 1005 ft | 13 kts | 72° |
| 2026-05-09 01:24 | 39.90220 | -84.20390 | 1004 ft | 22 kts | 53° |
| 2026-05-09 01:24 | 39.90273 | -84.20277 | 1005 ft | 3 kts | 146° |
| 2026-05-09 01:25 | 39.90268 | -84.20272 | 1005 ft | 3 kts | 146° |
| 2026-05-09 01:25 | 39.90245 | -84.20252 | 1004 ft | 9 kts | 146° |
| 2026-05-09 01:25 | 39.90133 | -84.20302 | 1002 ft | 23 kts | 236° |
| 2026-05-09 01:26 | 39.90049 | -84.20460 | 1002 ft | 50 kts | 233° |
| 2026-05-09 01:26 | 39.89630 | -84.21243 | 1140 ft | 97 kts | 238° |
| 2026-05-09 01:26 | 39.89365 | -84.21788 | 1241 ft | 115 kts | 240° |
| 2026-05-09 01:26 | 39.88905 | -84.22729 | 1452 ft | 129 kts | 239° |
| 2026-05-09 01:27 | 39.88421 | -84.23748 | 1663 ft | 137 kts | 240° |
| 2026-05-09 01:27 | 39.87932 | -84.24806 | 1951 ft | 135 kts | 239° |
| 2026-05-09 01:27 | 39.87086 | -84.25360 | 2091 ft | 156 kts | 185° |
| 2026-05-09 01:27 | 39.85986 | -84.24894 | 2104 ft | 180 kts | 149° |
| 2026-05-09 01:28 | 39.85267 | -84.23526 | 2263 ft | 190 kts | 106° |
| 2026-05-09 01:28 | 39.85286 | -84.21826 | 2589 ft | 187 kts | 83° |
| 2026-05-09 01:28 | 39.85464 | -84.20177 | 2913 ft | 183 kts | 85° |
| 2026-05-09 01:28 | 39.85580 | -84.18538 | 3239 ft | 180 kts | 89° |
| 2026-05-09 01:29 | 39.85656 | -84.16904 | 3494 ft | 186 kts | 90° |
| 2026-05-09 01:29 | 39.85733 | -84.15148 | 3500 ft | 201 kts | 90° |
| 2026-05-09 01:29 | 39.85820 | -84.13286 | 3491 ft | 210 kts | 89° |
| 2026-05-09 01:29 | 39.85914 | -84.11371 | 3493 ft | 214 kts | 89° |
| 2026-05-09 01:30 | 39.86007 | -84.09428 | 3500 ft | 215 kts | 90° |
| 2026-05-09 01:30 | 39.86121 | -84.07481 | 3499 ft | 217 kts | 83° |
| 2026-05-09 01:30 | 39.86782 | -84.05716 | 3491 ft | 220 kts | 51° |
| 2026-05-09 01:30 | 39.87797 | -84.04225 | 3495 ft | 220 kts | 46° |
| 2026-05-09 01:31 | 39.88831 | -84.02752 | 3497 ft | 221 kts | 46° |
| 2026-05-09 01:31 | 39.89758 | -84.01163 | 3488 ft | 221 kts | 66° |
| 2026-05-09 01:31 | 39.90013 | -83.99218 | 3492 ft | 219 kts | 93° |
| 2026-05-09 01:31 | 39.89951 | -83.97239 | 3496 ft | 219 kts | 96° |
| 2026-05-09 01:32 | 39.89922 | -83.95252 | 3496 ft | 220 kts | 93° |
| 2026-05-09 01:32 | 39.89942 | -83.93263 | 3497 ft | 220 kts | 92° |
| 2026-05-09 01:32 | 39.89960 | -83.91272 | 3498 ft | 220 kts | 92° |
| 2026-05-09 01:32 | 39.89971 | -83.89279 | 3497 ft | 220 kts | 93° |
| 2026-05-09 01:33 | 39.89980 | -83.87284 | 3496 ft | 221 kts | 93° |
| 2026-05-09 01:33 | 39.89989 | -83.85282 | 3498 ft | 221 kts | 93° |
| 2026-05-09 01:33 | 39.89999 | -83.83274 | 3498 ft | 222 kts | 92° |
| 2026-05-09 01:33 | 39.90008 | -83.81263 | 3498 ft | 222 kts | 93° |
| 2026-05-09 01:34 | 39.90017 | -83.79249 | 3500 ft | 222 kts | 92° |
| 2026-05-09 01:34 | 39.90026 | -83.77243 | 3500 ft | 222 kts | 93° |
| 2026-05-09 01:34 | 39.90034 | -83.75273 | 3505 ft | 215 kts | 92° |
| 2026-05-09 01:34 | 39.90042 | -83.73348 | 3493 ft | 211 kts | 93° |
| 2026-05-09 01:35 | 39.90050 | -83.71452 | 3488 ft | 208 kts | 93° |
| 2026-05-09 01:35 | 39.90056 | -83.69572 | 3488 ft | 207 kts | 93° |
| 2026-05-09 01:35 | 39.90061 | -83.67708 | 3490 ft | 206 kts | 93° |
| 2026-05-09 01:35 | 39.90068 | -83.65869 | 3494 ft | 205 kts | 93° |
| 2026-05-09 01:36 | 39.90074 | -83.64011 | 3496 ft | 205 kts | 93° |
| 2026-05-09 01:36 | 39.90079 | -83.62158 | 3493 ft | 205 kts | 93° |
| 2026-05-09 01:36 | 39.90084 | -83.60279 | 3493 ft | 205 kts | 93° |
| 2026-05-09 01:36 | 39.90089 | -83.58423 | 3495 ft | 204 kts | 93° |
| 2026-05-09 01:37 | 39.90095 | -83.56575 | 3494 ft | 204 kts | 93° |
| 2026-05-09 01:37 | 39.90099 | -83.54756 | 3496 ft | 203 kts | 93° |
| 2026-05-09 01:37 | 39.90101 | -83.52918 | 3497 ft | 203 kts | 93° |
| 2026-05-09 01:37 | 39.90105 | -83.51079 | 3500 ft | 203 kts | 93° |
| 2026-05-09 01:38 | 39.90109 | -83.49245 | 3500 ft | 203 kts | 93° |
| 2026-05-09 01:38 | 39.90113 | -83.47411 | 3500 ft | 203 kts | 93° |
| 2026-05-09 01:38 | 39.90116 | -83.45577 | 3498 ft | 202 kts | 93° |
| 2026-05-09 01:38 | 39.90117 | -83.43744 | 3501 ft | 202 kts | 93° |
| 2026-05-09 01:39 | 39.90120 | -83.41905 | 3502 ft | 207 kts | 93° |
| 2026-05-09 01:39 | 39.90120 | -83.39997 | 3506 ft | 213 kts | 93° |
| 2026-05-09 01:39 | 39.90122 | -83.38056 | 3514 ft | 216 kts | 92° |
| 2026-05-09 01:39 | 39.90124 | -83.36094 | 3534 ft | 217 kts | 92° |
| 2026-05-09 01:40 | 39.90126 | -83.34126 | 3535 ft | 218 kts | 92° |
| 2026-05-09 01:40 | 39.90126 | -83.32146 | 3532 ft | 219 kts | 92° |
| 2026-05-09 01:40 | 39.90123 | -83.30161 | 3530 ft | 219 kts | 94° |
| 2026-05-09 01:40 | 39.90112 | -83.28189 | 3517 ft | 218 kts | 93° |
| 2026-05-09 01:41 | 39.90114 | -83.26210 | 3514 ft | 218 kts | 93° |
| 2026-05-09 01:41 | 39.90119 | -83.24238 | 3513 ft | 218 kts | 92° |
| 2026-05-09 01:41 | 39.90129 | -83.22265 | 3514 ft | 219 kts | 92° |
| 2026-05-09 01:41 | 39.90129 | -83.20308 | 3515 ft | 219 kts | 93° |
| 2026-05-09 01:42 | 39.90115 | -83.18362 | 3367 ft | 208 kts | 93° |
| 2026-05-09 01:42 | 39.90384 | -83.16575 | 3198 ft | 179 kts | 65° |
| 2026-05-09 01:42 | 39.91102 | -83.15640 | 2943 ft | 133 kts | 32° |
| 2026-05-09 01:42 | 39.91784 | -83.15006 | 2787 ft | 116 kts | 23° |
| 2026-05-09 01:43 | 39.92491 | -83.14478 | 2468 ft | 116 kts | 25° |
| 2026-05-09 01:43 | 39.93126 | -83.13970 | 2306 ft | 101 kts | 36° |
| 2026-05-09 01:43 | 39.93296 | -83.13107 | 1890 ft | 108 kts | 122° |
| 2026-05-09 01:43 | 39.92916 | -83.12298 | 1652 ft | 97 kts | 122° |
| 2026-05-09 01:44 | 39.92371 | -83.11925 | 1443 ft | 96 kts | 186° |
| 2026-05-09 01:44 | 39.91795 | -83.12325 | 1231 ft | 92 kts | 214° |
| 2026-05-09 01:44 | 39.91273 | -83.12744 | 1067 ft | 85 kts | 214° |
| 2026-05-09 01:44 | 39.90794 | -83.13136 | 942 ft | 79 kts | 211° |
| 2026-05-09 01:45 | 39.90391 | -83.13466 | 906 ft | 67 kts | 213° |
| 2026-05-09 01:45 | 39.89875 | -83.13870 | 978 ft | 103 kts | 213° |
| 2026-05-09 01:45 | 39.89253 | -83.14429 | 1293 ft | 113 kts | 216° |
| 2026-05-09 01:45 | 39.88780 | -83.15176 | 1573 ft | 108 kts | 277° |
| 2026-05-09 01:46 | 39.89213 | -83.16024 | 1677 ft | 128 kts | 335° |
| 2026-05-09 01:46 | 39.90087 | -83.15742 | 1854 ft | 148 kts | 31° |
| 2026-05-09 01:46 | 39.90968 | -83.14948 | 1778 ft | 156 kts | 34° |
| 2026-05-09 01:46 | 39.91844 | -83.14085 | 1737 ft | 160 kts | 38° |
| 2026-05-09 01:47 | 39.92696 | -83.13229 | 1593 ft | 134 kts | 34° |
| 2026-05-09 01:47 | 39.93315 | -83.12564 | 1454 ft | 103 kts | 62° |
| 2026-05-09 01:47 | 39.93063 | -83.11889 | 1403 ft | 99 kts | 163° |
| 2026-05-09 01:47 | 39.92366 | -83.11867 | 1321 ft | 99 kts | 205° |
| 2026-05-09 01:48 | 39.91808 | -83.12329 | 1209 ft | 93 kts | 213° |
| 2026-05-09 01:48 | 39.91262 | -83.12759 | 1075 ft | 88 kts | 212° |
| 2026-05-09 01:48 | 39.90782 | -83.13157 | 939 ft | 73 kts | 212° |
| 2026-05-09 01:48 | 39.90463 | -83.13411 | 907 ft | 34 kts | 212° |
| 2026-05-09 01:49 | 39.90308 | -83.13555 | 907 ft | 14 kts | 272° |
| 2026-05-09 01:49 | 39.90328 | -83.13605 | 908 ft | 0 kts | 302° |
| 2026-05-09 01:49 | 39.90350 | -83.13654 | 909 ft | 17 kts | 299° |
| 2026-05-09 01:49 | 39.90427 | -83.13707 | 910 ft | 10 kts | 338° |